Airfield :
LOGIN :

Register | Disclaimer

   EN    FR    IT 

 










Legend :    VFR   Marginal VFR   IFR   Intensive IFR   Very Intensive IFR
Visi :
Ceiling :
>= 8 km
>= 3000ft
5 to 8 km
1000 to 3000 ft
1500m to 5 km
500 to 1000 ft
800 to 1500m
200 to 500 ft
< 800m
< 200 ft
Symbols :   Thunderstorms  Fog  Heavy snow  Heavy precipitations  Wind > 20 kt
SIGMETs :     Misc.  Thunderstorms  Icing  Turbulence  Mountain Waves  Volcanic Ashes






- Airport Elevation : 138 ft
- IATA code : BIO


LEBB - Bilbao

CURRENT METAR :
  • 101130Z 19007KT 140V260 9999 SCT070 18/09 Q1011 NOSIG

EXPIRED METARs :
  • 101100Z 19006KT 120V260 9999 FEW070 17/09 Q1012 NOSIG
  • 101030Z 18008KT 140V230 9999 FEW071 17/08 Q1012 NOSIG
  • 101000Z 16006KT 100V260 9999 FEW071 17/09 Q1012 NOSIG
  • 100930Z 16007KT 080V230 CAVOK 16/08 Q1012 NOSIG
  • 100900Z 15006KT 100V220 CAVOK 15/08 Q1012 NOSIG

TAF TAF LEBB
Valid from the 10 at 12:00 until the 11 at 12:00 UTC


101100Z 1012/1112 32007KT 9999 FEW040 TX22/1013Z TN09/1108Z
PROB40
TEMPO 1014/1021 3000 RA SHRA BKN010 SCT030TCU
PROB40
TEMPO 1015/1019 1500 TS +SHRA BKN030CB
TEMPO 1021/1112 3000 RA BKN010
PROB40
TEMPO 1021/1106 1500 RA BKN005



MET'MAP, your aeronautical weather chart ! - Copyright ORBIFLY December 2007 - Disclaimer

ORBIFLY MET'MAP TEAM :

Programming & Development : Alexandra Zaïnal
Concept & original design : Baudouin d'Aumeries
Assistance for programming : Marc-Olivier Méhu
Technical & hardware support : Manuel Goepfert

Contact : metmap@orbifly.com




SOURCES & CREDITS :

   NOAA